NCAR-RAP Real-Time Weather Data

Output produced by METARs form (10 April 2020  06:39 UTC)
found at http://weather.rap.ucar.edu/surface/
 
KBHM 100553Z 34008KT 10SM FEW080 16/02 A2990 RMK AO2 SLP120 T01610022 10217 20161 402500161 58001
KBHM 100453Z 34009KT 10SM OVC200 17/03 A2990 RMK AO2 SLP120 T01670028
KBHM 100353Z 34006KT 10SM OVC200 17/04 A2991 RMK AO2 SLP122 T01670044
KBHM 100253Z 35008KT 10SM BKN200 17/06 A2991 RMK AO2 SLP121 T01720056 53022
KBHM 100153Z 36007KT 10SM BKN200 18/08 A2988 RMK AO2 SLP113 T01830083
KBHM 100053Z 33008KT 10SM BKN200 19/09 A2985 RMK AO2 SLP101 T01890089
KBHM 092353Z 32008KT 10SM BKN200 22/08 A2984 RMK AO2 SLP098 T02170078 10250 20217 55002
KBHM 092253Z 28011KT 10SM BKN200 23/08 A2984 RMK AO2 SLP096 T02330083
KBHM 092153Z 32008KT 10SM BKN250 24/08 A2984 RMK AO2 SLP095 T02440083
KBHM 092053Z 33006KT 10SM SCT250 25/11 A2985 RMK AO2 SLP099 T02500111 58018
KBHM 091953Z 36007KT 10SM SCT250 24/10 A2987 RMK AO2 SLP109 T02440100
KBHM 091853Z 31010KT 10SM FEW250 24/12 A2989 RMK AO2 SLP114 T02390117
KBHM 091753Z 35009G21KT 10SM FEW250 23/12 A2990 RMK AO2 SLP118 T02280122 10233 20172 58001
KBHM 091653Z 33015G19KT 10SM CLR 22/13 A2991 RMK AO2 SLP121 T02220128
KBHM 091604Z 01012KT 10SM FEW023 22/15 A2992 RMK AO2 T02170150
KBHM 091553Z 35012KT 10SM BKN023 21/16 A2992 RMK AO2 SLP124 T02060156
KBHM 091453Z 35011KT 10SM BKN018 OVC026 20/16 A2990 RMK AO2 SLP120 T02000156 51026
KBHM 091438Z 34010KT 10SM BKN018 19/16 A2989 RMK AO2 T01940156
KBHM 091353Z 33010KT 10SM FEW013 FEW021 BKN250 20/16 A2988 RMK AO2 SLP111 T02000161
KBHM 091253Z 27005KT 10SM FEW100 BKN250 19/16 A2985 RMK AO2 SLP102 T01940161
KBHM 091153Z 00000KT 10SM FEW025 BKN100 BKN250 18/16 A2982 RMK AO2 LTG DSNT S RAE21 SLP093 TS MOV SE P0002 60007 70007 T01780161 10217 20178 53006
KBHM 091121Z 20004KT 10SM FEW025 BKN100 BKN250 18/16 A2980 RMK AO2 LTG DSNT SE-SW RAE21 TS MOV SE P0002 T01780161
KBHM 091053Z 26005KT 6SM -TSRA FEW035 SCT060 OVC100 18/15 A2981 RMK AO2 RAB33 TSB14 SLP088 OCNL LTGCCCG W-N TS W-N MOV SE P0004 T01830150
KBHM 091014Z 13003KT 10SM TS BKN120 18/15 A2977 RMK AO2 LTG DSNT NW TSB14 PRESFR OCNL LTGCC NW TS NW MOV SE T01830150
KBHM 090953Z 02006KT 10SM BKN120 18/15 A2980 RMK AO2 WSHFT 0840 RAE0854 SLP083 P0001 T01830150
KBHM 090856Z 36014G31KT 10SM SCT013 BKN030 OVC120 19/16 A2981 RMK AO2 WSHFT 0840 RAE54 P0000 T01940161
KBHM 090853Z 35016G31KT 10SM -RA BKN013 BKN030 OVC110 20/17 A2981 RMK AO2 PK WND 30032/0840 WSHFT 0837 RAB39 SLP086 P0000 60000 T02000167 53015
KBHM 090753Z 25006KT 10SM OVC010 21/19 A2978 RMK AO2 LTG DSNT N CIG 009V015 SLP076 T02110189
KBHM 090741Z 26008KT 10SM BKN012 OVC020 21/19 A2977 RMK AO2 T02110189